McCall, Louisiana
Current Conditions -  °F | °C
As of 7:35 PM on Wednesday 26 Nov 2014 (Local Time) from KL38 Reporting Station
Clear Clear  
Wind Chill: 57°   Ceiling: Unl
Heat Index: 57°   Visibility: 10mi
Dew Point: 46°   Wind: 3mph
Humidity: 69%   Direction: 220°SW
Pressure: 30.23"   Gusts: NA
Location:  30.1206°N, 91.0306°W
Report Text: KL38 270135Z AUTO 22003KT 10SM CLR 14/08 A3023 RMK AO2 T01370080
Loading
Personal Weather Stations






























Interactive Weather Map New forecast layout! Learn more

10-Day Weather Forecast

Advertisements
Track Severe Weather on mobile